createdAt,value
2023-03-17T00:02:06.054Z,3.50
2023-03-17T00:04:33.490Z,3.50
2023-03-17T00:07:05.353Z,3.50
2023-03-17T00:09:34.936Z,3.40
2023-03-17T00:12:01.982Z,3.40
2023-03-17T00:14:29.310Z,3.40
2023-03-17T00:16:58.894Z,3.40
2023-03-17T00:19:35.162Z,3.40
2023-03-17T00:22:10.631Z,3.40
2023-03-17T00:24:37.984Z,3.40
2023-03-17T00:27:13.340Z,3.40
2023-03-17T00:29:40.773Z,3.30
2023-03-17T00:32:17.324Z,3.40
2023-03-17T00:34:44.834Z,3.40
2023-03-17T00:37:14.720Z,3.40
2023-03-17T00:39:44.255Z,3.40
2023-03-17T00:42:13.904Z,3.40
2023-03-17T00:44:43.689Z,3.40
2023-03-17T00:47:11.629Z,3.40
2023-03-17T00:49:39.074Z,3.40
2023-03-17T00:52:06.283Z,3.40
2023-03-17T00:54:33.606Z,3.40
2023-03-17T00:57:00.754Z,3.40
2023-03-17T00:59:33.634Z,3.40
2023-03-17T01:02:00.777Z,3.40
2023-03-17T01:04:28.204Z,3.40
2023-03-17T01:06:55.299Z,3.40
2023-03-17T01:09:27.117Z,3.40
2023-03-17T01:11:57.440Z,3.40
2023-03-17T01:14:27.419Z,3.40
2023-03-17T01:16:54.446Z,3.40
2023-03-17T01:19:21.923Z,3.30
2023-03-17T01:21:48.937Z,3.40
2023-03-17T01:24:16.323Z,3.30
2023-03-17T01:26:43.400Z,3.40
2023-03-17T01:29:10.731Z,3.30
2023-03-17T01:31:37.905Z,3.40
2023-03-17T01:34:05.383Z,3.30
2023-03-17T01:36:32.462Z,3.40
2023-03-17T01:39:02.238Z,3.40
2023-03-17T01:41:32.562Z,3.30
2023-03-17T01:44:02.165Z,3.30
2023-03-17T01:46:35.822Z,3.30
2023-03-17T01:49:12.957Z,3.30
2023-03-17T01:52:12.468Z,3.30
2023-03-17T01:54:42.620Z,3.30
2023-03-17T01:57:18.338Z,3.30
2023-03-17T01:59:53.201Z,3.30
2023-03-17T02:02:28.395Z,3.20
2023-03-17T02:04:55.747Z,3.20
2023-03-17T02:07:27.126Z,3.20
2023-03-17T02:09:56.659Z,3.20
2023-03-17T02:12:28.456Z,3.20
2023-03-17T02:14:56.215Z,3.20
2023-03-17T02:17:27.505Z,3.20
2023-03-17T02:20:11.683Z,3.20
2023-03-17T02:22:38.877Z,3.20
2023-03-17T02:25:06.531Z,3.20
2023-03-17T02:27:41.419Z,3.20
2023-03-17T02:30:13.769Z,3.20
2023-03-17T02:32:41.281Z,3.20
2023-03-17T02:35:11.646Z,3.20
2023-03-17T02:37:38.735Z,3.20
2023-03-17T02:40:07.430Z,3.20
2023-03-17T02:42:37.203Z,3.20
2023-03-17T02:45:05.813Z,3.20
2023-03-17T02:47:33.135Z,3.30
2023-03-17T02:50:07.288Z,3.30
2023-03-17T02:52:36.668Z,3.30
2023-03-17T02:55:04.290Z,3.30
2023-03-17T02:57:31.416Z,3.30
2023-03-17T02:59:58.842Z,3.30
2023-03-17T03:02:28.225Z,3.30
2023-03-17T03:04:58.199Z,3.30
2023-03-17T03:07:27.540Z,3.30
2023-03-17T03:09:54.927Z,3.30
2023-03-17T03:12:24.544Z,3.30
2023-03-17T03:14:54.130Z,3.30
2023-03-17T03:17:21.936Z,3.30
2023-03-17T03:19:51.520Z,3.30
2023-03-17T03:22:18.660Z,3.30
2023-03-17T03:24:45.971Z,3.30
2023-03-17T03:27:13.013Z,3.30
2023-03-17T03:29:40.373Z,3.30
2023-03-17T03:32:07.703Z,3.30
2023-03-17T03:34:37.549Z,3.40
2023-03-17T03:37:04.723Z,3.40
2023-03-17T03:39:32.134Z,3.40
2023-03-17T03:42:01.448Z,3.40
2023-03-17T03:44:28.830Z,3.40
2023-03-17T03:46:55.916Z,3.40
2023-03-17T03:49:25.798Z,3.40
2023-03-17T03:51:52.937Z,3.40
2023-03-17T03:54:20.347Z,3.30
2023-03-17T03:56:47.554Z,3.30
2023-03-17T03:59:14.973Z,3.30
2023-03-17T04:01:42.015Z,3.30
2023-03-17T04:04:11.862Z,3.30
2023-03-17T04:06:38.963Z,3.30
2023-03-17T04:09:08.704Z,3.30
2023-03-17T04:11:38.246Z,3.40
2023-03-17T04:14:05.639Z,3.40
2023-03-17T04:16:32.738Z,3.40
2023-03-17T04:19:02.434Z,3.40
2023-03-17T04:21:29.497Z,3.40
2023-03-17T04:23:56.821Z,3.30
2023-03-17T04:26:23.851Z,3.30
2023-03-17T04:28:51.248Z,3.30
2023-03-17T04:31:18.352Z,3.30
2023-03-17T04:33:45.762Z,3.30
2023-03-17T04:36:23.189Z,3.30
2023-03-17T04:38:50.716Z,3.30
2023-03-17T04:41:20.405Z,3.30
2023-03-17T04:43:50.012Z,3.20
2023-03-17T04:46:17.178Z,3.20
2023-03-17T04:48:44.584Z,3.20
2023-03-17T04:51:12.017Z,3.20
2023-03-17T04:53:39.596Z,3.20
2023-03-17T04:56:06.938Z,3.20
2023-03-17T04:58:34.322Z,3.30
2023-03-17T05:01:01.355Z,3.30
2023-03-17T05:03:28.959Z,3.30
2023-03-17T05:05:59.537Z,3.30
2023-03-17T05:08:27.445Z,3.40
2023-03-17T05:10:58.693Z,3.40
2023-03-17T05:13:26.425Z,3.50
2023-03-17T05:15:55.534Z,3.60
2023-03-17T05:18:24.963Z,3.70
2023-03-17T05:20:52.489Z,3.90
2023-03-17T05:23:22.835Z,4.00
2023-03-17T05:25:50.285Z,4.10
2023-03-17T05:28:17.692Z,4.10
2023-03-17T05:30:44.809Z,4.30
2023-03-17T05:33:15.070Z,4.60
2023-03-17T05:35:44.759Z,4.90
2023-03-17T05:38:13.901Z,5.10
2023-03-17T05:40:41.364Z,6.30
2023-03-17T05:43:11.525Z,7.40
2023-03-17T05:45:38.562Z,8.10
2023-03-17T05:48:06.015Z,8.50
2023-03-17T05:50:33.367Z,9.20
2023-03-17T05:53:00.749Z,9.90
2023-03-17T05:55:27.848Z,10.70
2023-03-17T05:57:57.520Z,12.00
2023-03-17T06:00:27.049Z,12.90
2023-03-17T06:02:54.530Z,13.60
2023-03-17T06:05:21.621Z,14.20
2023-03-17T06:07:54.848Z,14.30
2023-03-17T06:10:24.339Z,14.30
2023-03-17T06:12:54.370Z,14.40
2023-03-17T06:15:24.223Z,13.90
2023-03-17T06:17:52.243Z,15.00
2023-03-17T06:20:19.619Z,15.60
2023-03-17T06:23:02.634Z,15.80
2023-03-17T06:25:30.544Z,15.10
2023-03-17T06:28:00.499Z,15.50
2023-03-17T06:30:27.662Z,15.40
2023-03-17T06:32:57.285Z,15.00
2023-03-17T06:35:29.249Z,14.10
2023-03-17T06:37:56.889Z,13.40
2023-03-17T06:40:24.030Z,12.90
2023-03-17T06:42:53.730Z,13.00
2023-03-17T06:45:22.968Z,12.30
2023-03-17T06:47:50.377Z,11.50
2023-03-17T06:50:19.791Z,11.20
2023-03-17T06:52:47.117Z,11.60
2023-03-17T06:55:16.718Z,11.70
2023-03-17T06:57:50.949Z,11.80
2023-03-17T07:00:19.596Z,11.50
2023-03-17T07:02:48.057Z,11.50
2023-03-17T07:05:15.977Z,11.00
2023-03-17T07:07:43.364Z,11.30
2023-03-17T07:10:11.224Z,10.50
2023-03-17T07:12:38.790Z,10.40
2023-03-17T07:15:06.294Z,10.20
2023-03-17T07:17:33.794Z,10.00
2023-03-17T07:20:01.119Z,9.90
2023-03-17T07:22:30.968Z,9.80
2023-03-17T07:24:58.336Z,10.30
2023-03-17T07:27:29.509Z,11.40
2023-03-17T07:29:56.571Z,10.90
2023-03-17T07:32:26.372Z,11.30
2023-03-17T07:34:53.545Z,11.60
2023-03-17T07:37:20.940Z,11.80
2023-03-17T07:39:50.818Z,12.30
2023-03-17T07:42:18.348Z,12.80
2023-03-17T07:44:50.153Z,13.70
2023-03-17T07:47:19.711Z,13.90
2023-03-17T07:49:49.365Z,13.40
2023-03-17T07:52:16.728Z,13.60
2023-03-17T07:54:43.773Z,13.60
2023-03-17T07:57:11.863Z,13.50
2023-03-17T07:59:38.928Z,13.10
2023-03-17T08:02:06.301Z,14.00
2023-03-17T08:04:33.399Z,15.00
2023-03-17T08:07:00.878Z,15.90
2023-03-17T08:09:30.133Z,15.90
2023-03-17T08:12:00.004Z,16.80
2023-03-17T08:14:27.086Z,18.50
2023-03-17T08:16:54.462Z,19.90
2023-03-17T08:19:22.214Z,19.70
2023-03-17T08:21:49.917Z,19.90
2023-03-17T08:24:17.758Z,19.70
2023-03-17T08:26:48.485Z,18.80
2023-03-17T08:29:17.966Z,19.20
2023-03-17T08:31:46.759Z,18.90
2023-03-17T08:34:13.983Z,20.00
2023-03-17T08:36:43.747Z,21.20
2023-03-17T08:39:13.119Z,21.40
2023-03-17T08:41:40.551Z,21.30
2023-03-17T08:44:07.638Z,21.00
2023-03-17T08:46:35.546Z,20.00
2023-03-17T08:49:03.264Z,19.20
2023-03-17T08:51:33.233Z,18.80
2023-03-17T08:54:00.822Z,18.40
2023-03-17T08:56:28.713Z,18.50
2023-03-17T08:58:55.835Z,18.30
2023-03-17T09:01:26.679Z,17.50
2023-03-17T09:03:54.450Z,17.00
2023-03-17T09:06:24.758Z,16.70
2023-03-17T09:08:56.414Z,16.60
2023-03-17T09:11:28.316Z,16.50
2023-03-17T09:13:56.215Z,16.20
2023-03-17T09:16:24.368Z,15.50
2023-03-17T09:18:51.699Z,15.50
2023-03-17T09:21:19.460Z,15.50
2023-03-17T09:23:46.927Z,14.60
2023-03-17T09:26:16.578Z,14.50
2023-03-17T09:28:46.304Z,14.30
2023-03-17T09:31:13.738Z,14.90
2023-03-17T09:33:41.662Z,15.40
2023-03-17T09:36:10.626Z,15.90
2023-03-17T09:38:40.444Z,16.60
2023-03-17T09:41:17.208Z,17.20
2023-03-17T09:48:06.821Z,19.30
2023-03-17T09:51:00.663Z,19.70
2023-03-17T09:53:33.390Z,19.40
2023-03-17T09:56:08.430Z,19.90
2023-03-17T09:58:37.752Z,20.70
2023-03-17T10:01:05.413Z,21.50
2023-03-17T10:03:33.718Z,21.80
2023-03-17T10:06:20.008Z,22.20
2023-03-17T10:08:55.456Z,21.90
2023-03-17T10:11:40.475Z,22.80
2023-03-17T10:14:18.220Z,22.30
2023-03-17T10:17:06.690Z,22.70
2023-03-17T10:20:12.667Z,22.20
2023-03-17T10:22:49.390Z,21.60
2023-03-17T10:25:21.164Z,21.10
2023-03-17T10:28:09.010Z,20.40
2023-03-17T10:30:39.293Z,22.60
2023-03-17T10:33:09.256Z,22.80
2023-03-17T10:35:37.987Z,22.10
2023-03-17T10:38:24.430Z,22.20
2023-03-17T10:41:06.193Z,22.00
2023-03-17T10:43:51.338Z,21.40
2023-03-17T10:46:23.734Z,20.50
2023-03-17T10:49:09.245Z,20.30
2023-03-17T10:51:38.682Z,20.20
2023-03-17T10:54:16.463Z,20.40
2023-03-17T10:56:46.679Z,20.90
2023-03-17T10:59:32.451Z,21.50
2023-03-17T11:02:01.460Z,21.60
2023-03-17T11:04:39.898Z,21.70
2023-03-17T11:07:08.812Z,22.30
2023-03-17T11:09:37.867Z,23.30
2023-03-17T11:12:25.942Z,24.00
2023-03-17T11:15:01.818Z,22.30
2023-03-17T11:17:31.642Z,19.60
2023-03-17T11:20:31.874Z,17.50
2023-03-17T11:22:59.114Z,16.70
2023-03-17T11:25:31.209Z,16.30
2023-03-17T11:28:01.060Z,15.90
2023-03-17T11:30:44.552Z,15.90
2023-03-17T11:33:30.476Z,16.30
2023-03-17T11:36:08.331Z,16.50
2023-03-17T11:38:43.329Z,15.70
2023-03-17T11:41:25.559Z,15.40
2023-03-17T11:44:27.676Z,15.30
2023-03-17T11:47:02.107Z,14.80
2023-03-17T11:49:37.335Z,14.30
2023-03-17T11:52:10.870Z,13.70
2023-03-17T11:54:50.054Z,13.30
2023-03-17T11:57:20.532Z,12.90
2023-03-17T11:59:59.980Z,12.80
2023-03-17T12:03:10.668Z,12.60
2023-03-17T12:05:38.568Z,12.60
2023-03-17T12:08:35.030Z,12.50
2023-03-17T12:11:09.728Z,12.40
2023-03-17T12:13:48.796Z,12.20
2023-03-17T12:16:25.806Z,12.10
2023-03-17T12:19:00.829Z,12.10
2023-03-17T12:21:48.385Z,11.80
2023-03-17T12:24:40.050Z,11.70
2023-03-17T12:27:17.686Z,11.70
2023-03-17T12:30:08.035Z,11.70
2023-03-17T12:33:09.688Z,11.50
2023-03-17T12:35:37.485Z,11.40
2023-03-17T12:38:18.041Z,11.30
2023-03-17T12:40:51.158Z,11.20
2023-03-17T12:43:39.082Z,11.30
2023-03-17T12:46:19.072Z,11.30
2023-03-17T12:49:11.234Z,11.40
2023-03-17T12:51:45.284Z,11.50
2023-03-17T12:54:21.169Z,11.40
2023-03-17T12:56:49.527Z,11.30
2023-03-17T12:59:24.573Z,11.20
2023-03-17T13:02:12.718Z,11.10
2023-03-17T13:04:49.308Z,11.10
2023-03-17T13:07:39.345Z,10.90
2023-03-17T13:10:21.295Z,10.90
2023-03-17T13:12:48.653Z,10.70
2023-03-17T13:15:21.694Z,10.60
2023-03-17T13:17:49.578Z,10.50
2023-03-17T13:20:19.522Z,10.60
2023-03-17T13:23:13.313Z,10.60
2023-03-17T13:25:40.336Z,10.80
2023-03-17T13:28:13.783Z,10.80
2023-03-17T13:30:42.652Z,10.80
2023-03-17T13:33:10.107Z,11.00
2023-03-17T13:35:46.796Z,11.10
2023-03-17T13:38:37.290Z,11.00
2023-03-17T13:41:44.188Z,11.00
2023-03-17T13:44:29.320Z,11.10
2023-03-17T13:47:29.608Z,11.10
2023-03-17T13:50:02.697Z,11.10
2023-03-17T13:52:42.101Z,11.00
2023-03-17T13:55:37.856Z,11.00
2023-03-17T13:58:10.897Z,11.10
2023-03-17T14:00:41.124Z,11.20
2023-03-17T14:03:22.750Z,11.20
2023-03-17T14:05:52.208Z,11.20
2023-03-17T14:08:34.899Z,11.20
2023-03-17T14:11:07.694Z,11.10
2023-03-17T14:13:46.726Z,11.10
2023-03-17T14:16:36.803Z,11.10
2023-03-17T14:19:23.104Z,11.00
2023-03-17T14:21:50.443Z,11.00
2023-03-17T14:24:24.074Z,11.10
2023-03-17T14:26:55.221Z,11.20
2023-03-17T14:29:31.860Z,11.20
2023-03-17T14:32:15.124Z,11.30
2023-03-17T14:34:48.017Z,11.30
2023-03-17T14:37:18.730Z,11.30
2023-03-17T14:39:57.141Z,11.20
2023-03-17T14:42:30.114Z,11.10
2023-03-17T14:45:07.157Z,11.10
2023-03-17T14:47:41.902Z,11.00
2023-03-17T14:50:33.381Z,11.00
2023-03-17T14:53:03.678Z,11.10
2023-03-17T14:55:38.291Z,11.10
2023-03-17T14:58:35.519Z,11.10
2023-03-17T15:01:32.724Z,11.10
2023-03-17T15:04:13.153Z,11.10
2023-03-17T15:06:49.294Z,11.10
2023-03-17T15:09:35.287Z,11.00
2023-03-17T15:12:23.573Z,11.00
2023-03-17T15:15:15.996Z,11.10
2023-03-17T15:17:50.401Z,11.00
2023-03-17T15:20:20.708Z,11.00
2023-03-17T15:22:56.934Z,10.90
2023-03-17T15:25:51.039Z,10.90
2023-03-17T15:28:24.480Z,10.90
2023-03-17T15:30:56.620Z,11.00
2023-03-17T15:33:31.882Z,11.00
2023-03-17T15:36:01.458Z,11.00
2023-03-17T15:38:29.006Z,11.10
2023-03-17T15:40:57.761Z,11.10
2023-03-17T15:43:24.881Z,11.10
2023-03-17T15:46:05.294Z,11.10
2023-03-17T15:48:36.701Z,11.20
2023-03-17T15:51:05.707Z,11.20
2023-03-17T15:53:35.131Z,11.20
2023-03-17T15:56:05.151Z,11.10
2023-03-17T15:58:32.204Z,11.10
2023-03-17T16:00:59.688Z,11.00
2023-03-17T16:03:35.143Z,11.00
2023-03-17T16:06:07.142Z,11.00
2023-03-17T16:08:34.224Z,10.90
2023-03-17T16:11:01.563Z,10.90
2023-03-17T16:13:30.868Z,10.80
2023-03-17T16:16:00.411Z,10.70
2023-03-17T16:18:33.517Z,10.70
2023-03-17T16:21:01.586Z,10.70
2023-03-17T16:23:31.649Z,10.60
2023-03-17T16:26:13.823Z,10.60
2023-03-17T16:28:57.458Z,10.60
2023-03-17T16:31:29.077Z,10.60
2023-03-17T16:33:58.546Z,10.50
2023-03-17T16:36:28.492Z,10.50
2023-03-17T16:38:55.592Z,10.50
2023-03-17T16:41:25.164Z,10.40
2023-03-17T16:44:02.400Z,10.40
2023-03-17T16:46:35.041Z,10.30
2023-03-17T16:49:03.792Z,10.20
2023-03-17T16:51:33.717Z,10.20
2023-03-17T16:54:03.049Z,10.10
2023-03-17T16:56:30.609Z,10.10
2023-03-17T16:58:57.698Z,10.00
2023-03-17T17:01:27.596Z,10.00
2023-03-17T17:03:55.449Z,9.90
2023-03-17T17:06:24.018Z,9.90
2023-03-17T17:08:51.758Z,9.90
2023-03-17T17:11:20.570Z,10.00
2023-03-17T17:13:48.809Z,10.00
2023-03-17T17:16:47.846Z,9.90
2023-03-17T17:19:17.991Z,9.80
2023-03-17T17:21:45.562Z,9.70
2023-03-17T17:24:15.903Z,9.60
2023-03-17T17:26:42.836Z,9.60
2023-03-17T17:29:12.746Z,9.50
2023-03-17T17:31:39.900Z,9.40
2023-03-17T17:34:09.508Z,9.40
2023-03-17T17:36:36.705Z,9.40
2023-03-17T17:39:06.599Z,9.40
2023-03-17T17:41:36.578Z,9.30
2023-03-17T17:44:06.381Z,9.30
2023-03-17T17:46:33.763Z,9.30
2023-03-17T17:49:01.250Z,9.20
2023-03-17T17:51:28.319Z,9.20
2023-03-17T17:53:55.720Z,9.20
2023-03-17T17:56:22.802Z,9.20
2023-03-17T17:58:50.318Z,9.10
2023-03-17T18:01:17.381Z,9.10
2023-03-17T18:03:47.733Z,9.10
2023-03-17T18:06:15.199Z,9.10
2023-03-17T18:08:42.551Z,9.00
2023-03-17T18:11:12.131Z,9.00
2023-03-17T18:13:39.473Z,8.90
2023-03-17T18:16:11.433Z,8.90
2023-03-17T18:18:41.255Z,8.90
2023-03-17T18:21:09.132Z,8.80
2023-03-17T18:23:39.356Z,8.80
2023-03-17T18:26:06.676Z,8.80
2023-03-17T18:28:34.424Z,8.80
2023-03-17T18:31:07.340Z,8.80
2023-03-17T18:33:37.772Z,8.80
2023-03-17T18:36:05.375Z,8.70
2023-03-17T18:38:36.160Z,8.70
2023-03-17T18:41:03.787Z,8.70
2023-03-17T18:43:34.831Z,8.70
2023-03-17T18:46:02.023Z,8.70
2023-03-17T18:48:29.438Z,8.60
2023-03-17T18:50:59.036Z,8.60
2023-03-17T18:53:26.460Z,8.60
2023-03-17T18:55:53.541Z,8.50
2023-03-17T18:58:20.954Z,8.50
2023-03-17T19:00:50.412Z,8.40
2023-03-17T19:03:17.875Z,8.40
2023-03-17T19:05:45.725Z,8.40
2023-03-17T19:08:15.541Z,8.30
2023-03-17T19:10:43.738Z,8.30
2023-03-17T19:13:11.190Z,8.30
2023-03-17T19:15:38.282Z,8.20
2023-03-17T19:18:06.037Z,8.20
2023-03-17T19:20:33.415Z,8.20
2023-03-17T19:23:01.225Z,8.20
2023-03-17T19:25:30.873Z,8.20
2023-03-17T19:27:58.341Z,8.10
2023-03-17T19:30:25.424Z,8.10
2023-03-17T19:32:52.895Z,8.10
2023-03-17T19:35:20.032Z,8.00
2023-03-17T19:37:47.583Z,8.00
2023-03-17T19:40:15.019Z,7.90
2023-03-17T19:42:44.659Z,7.90
2023-03-17T19:45:12.004Z,7.90
2023-03-17T19:47:40.033Z,7.90
2023-03-17T19:50:10.407Z,7.80
2023-03-17T19:52:37.859Z,7.80
2023-03-17T19:55:08.166Z,7.80
2023-03-17T19:57:37.990Z,7.80
2023-03-17T20:00:05.699Z,7.80
2023-03-17T20:02:35.546Z,7.70
2023-03-17T20:05:02.811Z,7.70
2023-03-17T20:07:30.193Z,7.70
2023-03-17T20:09:57.322Z,7.70
2023-03-17T20:12:24.823Z,7.70
2023-03-17T20:14:52.062Z,7.70
2023-03-17T20:17:19.871Z,7.70
2023-03-17T20:19:46.970Z,7.70
2023-03-17T20:22:14.383Z,7.70
2023-03-17T20:24:45.852Z,7.70
2023-03-17T20:27:15.843Z,7.70
2023-03-17T20:29:46.101Z,7.70
2023-03-17T20:32:13.855Z,7.70
2023-03-17T20:34:48.800Z,7.70
2023-03-17T20:37:16.389Z,7.70
2023-03-17T20:39:43.541Z,7.70
2023-03-17T20:42:10.976Z,7.70
2023-03-17T20:44:38.096Z,7.60
2023-03-17T20:47:08.075Z,7.60
2023-03-17T20:49:35.911Z,7.60
2023-03-17T20:52:06.108Z,7.60
2023-03-17T20:54:35.537Z,7.60
2023-03-17T20:57:02.914Z,7.60
2023-03-17T20:59:32.226Z,7.60
2023-03-17T21:02:01.886Z,7.60
2023-03-17T21:04:28.967Z,7.60
2023-03-17T21:06:56.317Z,7.60
2023-03-17T21:09:23.465Z,7.50
2023-03-17T21:11:50.821Z,7.50
2023-03-17T21:14:20.209Z,7.50
2023-03-17T21:16:49.784Z,7.50
2023-03-17T21:19:19.363Z,7.50
2023-03-17T21:21:46.701Z,7.50
2023-03-17T21:24:31.177Z,7.40
2023-03-17T21:27:00.110Z,7.40
2023-03-17T21:29:28.496Z,7.40
2023-03-17T21:31:56.015Z,7.30
2023-03-17T21:34:24.323Z,7.30
2023-03-17T21:36:54.475Z,7.30
2023-03-17T21:39:24.623Z,7.20
2023-03-17T21:41:52.187Z,7.30
2023-03-17T21:44:19.606Z,7.30
2023-03-17T21:46:49.070Z,7.30
2023-03-17T21:49:18.848Z,7.30
2023-03-17T21:51:47.179Z,7.20
2023-03-17T21:54:17.324Z,7.30
2023-03-17T21:56:46.988Z,7.20
2023-03-17T21:59:14.377Z,7.20
2023-03-17T22:01:42.732Z,7.20
2023-03-17T22:04:11.161Z,7.20
2023-03-17T22:06:38.535Z,7.20
2023-03-17T22:09:10.441Z,7.20
2023-03-17T22:11:37.815Z,7.20
2023-03-17T22:14:04.844Z,7.20
2023-03-17T22:16:32.518Z,7.20
2023-03-17T22:18:59.889Z,7.20
2023-03-17T22:21:27.221Z,7.20
2023-03-17T22:23:54.309Z,7.20
2023-03-17T22:26:24.136Z,7.20
2023-03-17T22:28:53.476Z,7.20
2023-03-17T22:31:23.987Z,7.20
2023-03-17T22:33:55.422Z,7.20
2023-03-17T22:36:23.750Z,7.20
2023-03-17T22:38:50.903Z,7.20
2023-03-17T22:41:21.148Z,7.10
2023-03-17T22:43:51.024Z,7.10
2023-03-17T22:46:19.358Z,7.10
2023-03-17T22:48:46.734Z,7.10
2023-03-17T22:51:21.149Z,7.10
2023-03-17T22:53:49.210Z,7.10
2023-03-17T22:56:18.020Z,7.10
2023-03-17T22:58:48.047Z,7.10
2023-03-17T23:01:17.196Z,7.10
2023-03-17T23:03:47.210Z,7.20
2023-03-17T23:06:15.217Z,7.10
2023-03-17T23:08:43.576Z,7.10
2023-03-17T23:11:17.663Z,7.20
2023-03-17T23:13:45.053Z,7.20
2023-03-17T23:16:12.852Z,7.20
2023-03-17T23:18:40.296Z,7.10
2023-03-17T23:21:08.678Z,7.20
2023-03-17T23:23:37.667Z,7.10
2023-03-17T23:26:05.715Z,7.20
2023-03-17T23:28:32.838Z,7.10
2023-03-17T23:31:00.254Z,7.10
2023-03-17T23:33:29.879Z,7.10
2023-03-17T23:35:57.235Z,7.10
2023-03-17T23:38:24.268Z,7.10
2023-03-17T23:40:55.055Z,7.10
2023-03-17T23:43:22.194Z,7.10
2023-03-17T23:45:53.728Z,7.10
2023-03-17T23:48:24.019Z,7.10
2023-03-17T23:50:54.453Z,7.10
2023-03-17T23:53:25.088Z,7.10
2023-03-17T23:55:52.463Z,7.10
2023-03-17T23:58:22.003Z,7.10
